Главная страница
METAR-TAF:

METAR-TAF

Аэропорты :

Cape Peel West, Нунавут, Канада

широта: 69-02N, долгота: 107-49W, высота над уровнем моря: 165 м

Текущие метеонаблюдения

Эта сводка был подготовлена 21 минут назад, в 03:29 UTC
Ветер 8 Узел от западный
Температура -5°C
Влажность 86%
Давление 1011 hPa
Сплошная облачность на высоте 1000 фута

METAR: CWPX 250329Z AUTO 27008KT ////SM //// OVC010 M05/M07 A2984

Время: 21:50 (03:50 UTC)


TAF: отсутствует

Метеонаблюдения и прогнозы для более 4000 аэропортов (сводки METAR и TAF).

Имеющиеся станции представлены на карте желтыми и красными точками.

Чтобы увидеть название станции, наведите на нее мышь.

Затем щелкните, чтобы увидеть метеонаблюдения и метеопрогнозы.

Управление картой: чтобы увеличить масштаб, щелкните зеленые кнопки с черным крестиком; чтобы уменьшить масштаб, щелкните зеленую кнопку с тире; для просмотра соседних карт щелкайте зеленые стрелки.


METAR-TAF: